createdAt,value
2019-01-10T00:00:22.737Z,98549.17
2019-01-10T00:02:53.178Z,98555.84
2019-01-10T00:05:21.625Z,98558.84
2019-01-10T00:07:50.008Z,98564.66
2019-01-10T00:10:19.130Z,98573.71
2019-01-10T00:12:47.303Z,98570.43
2019-01-10T00:15:16.735Z,98582.28
2019-01-10T00:17:45.567Z,98582.52
2019-01-10T00:20:13.845Z,98585.97
2019-01-10T00:22:41.810Z,98580.23
2019-01-10T00:25:10.535Z,98585.86
2019-01-10T00:27:39.547Z,98588.45
2019-01-10T00:30:14.812Z,98584.65
2019-01-10T00:32:43.861Z,98586.39
2019-01-10T00:35:12.535Z,98594.31
2019-01-10T00:37:41.044Z,98590.19
2019-01-10T00:40:11.859Z,98597.95
2019-01-10T00:42:48.729Z,98595.99
2019-01-10T00:45:12.891Z,98594.67
2019-01-10T00:47:40.856Z,98612.95
2019-01-10T00:50:13.533Z,98609.59
2019-01-10T00:52:41.466Z,98608.00
2019-01-10T00:55:09.420Z,98620.16
2019-01-10T00:57:38.902Z,98619.23
2019-01-10T01:00:15.689Z,98619.30
2019-01-10T01:02:44.418Z,98623.16
2019-01-10T01:05:13.472Z,98624.37
2019-01-10T01:07:41.804Z,98629.91
2019-01-10T01:10:31.964Z,98637.26
2019-01-10T01:13:00.246Z,98636.77
2019-01-10T01:15:28.343Z,98637.35
2019-01-10T01:17:57.995Z,98642.66
2019-01-10T01:20:26.002Z,98641.98
2019-01-10T01:22:53.982Z,98641.77
2019-01-10T01:25:22.646Z,98641.48
2019-01-10T01:27:50.593Z,98643.20
2019-01-10T01:30:22.123Z,98637.86
2019-01-10T01:32:50.058Z,98642.52
2019-01-10T01:35:18.351Z,98640.29
2019-01-10T01:37:46.454Z,98655.34
2019-01-10T01:40:17.225Z,98651.12
2019-01-10T01:42:45.196Z,98654.76
2019-01-10T01:45:14.486Z,98668.23
2019-01-10T01:47:42.509Z,98660.92
2019-01-10T01:50:15.741Z,98658.10
2019-01-10T01:52:43.707Z,98659.66
2019-01-10T01:55:12.264Z,98662.25
2019-01-10T01:57:40.848Z,98668.48
2019-01-10T02:00:12.594Z,98671.11
2019-01-10T02:02:40.814Z,98671.34
2019-01-10T02:05:08.982Z,98673.91
2019-01-10T02:07:36.969Z,98682.33
2019-01-10T02:10:13.902Z,98689.77
2019-01-10T02:12:42.054Z,98683.37
2019-01-10T02:15:10.037Z,98686.25
2019-01-10T02:17:38.327Z,98691.03
2019-01-10T02:20:08.091Z,98684.61
2019-01-10T02:22:38.604Z,98693.26
2019-01-10T02:25:08.169Z,98696.61
2019-01-10T02:27:36.559Z,98697.52
2019-01-10T02:30:07.452Z,98689.09
2019-01-10T02:32:35.668Z,98693.91
2019-01-10T02:35:04.475Z,98699.05
2019-01-10T02:37:32.693Z,98691.19
2019-01-10T02:40:01.006Z,98693.64
2019-01-10T02:42:29.180Z,98697.03
2019-01-10T02:44:58.371Z,98694.23
2019-01-10T02:47:26.440Z,98706.68
2019-01-10T02:49:54.394Z,98696.36
2019-01-10T02:52:22.378Z,98697.19
2019-01-10T02:54:50.317Z,98695.06
2019-01-10T02:57:19.451Z,98696.63
2019-01-10T02:59:47.726Z,98695.92
2019-01-10T03:02:16.098Z,98701.77
2019-01-10T03:04:44.130Z,98694.69
2019-01-10T03:07:12.110Z,98700.24
2019-01-10T03:09:40.726Z,98705.49
2019-01-10T03:12:08.814Z,98707.40
2019-01-10T03:14:37.476Z,98700.23
2019-01-10T03:17:05.629Z,98690.73
2019-01-10T03:19:33.544Z,98698.78
2019-01-10T03:22:01.514Z,98697.38
2019-01-10T03:24:29.515Z,98689.67
2019-01-10T03:26:57.757Z,98692.98
2019-01-10T03:29:26.431Z,98693.57
2019-01-10T03:31:54.923Z,98690.61
2019-01-10T03:34:23.075Z,98685.20
2019-01-10T03:36:51.068Z,98682.70
2019-01-10T03:39:19.325Z,98683.80
2019-01-10T03:41:47.617Z,98679.63
2019-01-10T03:44:15.613Z,98681.16
2019-01-10T03:46:44.242Z,98687.77
2019-01-10T03:49:12.254Z,98678.20
2019-01-10T03:51:40.180Z,98679.55
2019-01-10T03:54:08.487Z,98685.45
2019-01-10T03:56:36.704Z,98679.56
2019-01-10T03:59:04.713Z,98683.50
2019-01-10T04:01:32.674Z,98684.59
2019-01-10T04:04:00.976Z,98683.63
2019-01-10T04:06:28.990Z,98686.66
2019-01-10T04:08:57.278Z,98683.17
2019-01-10T04:11:25.372Z,98686.61
2019-01-10T04:13:57.589Z,98687.52
2019-01-10T04:16:24.514Z,98682.28
2019-01-10T04:18:52.977Z,98683.80
2019-01-10T04:21:21.001Z,98682.86
2019-01-10T04:23:52.337Z,98685.11
2019-01-10T04:26:20.303Z,98687.67
2019-01-10T04:28:48.544Z,98694.94
2019-01-10T04:31:16.543Z,98698.03
2019-01-10T04:33:44.923Z,98699.31
2019-01-10T04:36:13.206Z,98705.47
2019-01-10T04:38:41.222Z,98705.56
2019-01-10T04:41:09.249Z,98708.02
2019-01-10T04:43:37.889Z,98708.86
2019-01-10T04:46:05.859Z,98712.93
2019-01-10T04:48:34.139Z,98711.74
2019-01-10T04:51:02.334Z,98711.20
2019-01-10T04:53:30.652Z,98709.95
2019-01-10T04:55:58.727Z,98710.08
2019-01-10T04:58:26.757Z,98709.11
2019-01-10T05:00:54.754Z,98713.80
2019-01-10T05:03:22.872Z,98715.02
2019-01-10T05:05:51.569Z,98714.56
2019-01-10T05:08:21.274Z,98726.54
2019-01-10T05:10:49.405Z,98735.25
2019-01-10T05:13:17.397Z,98725.73
2019-01-10T05:15:45.572Z,98731.55
2019-01-10T05:18:13.551Z,98737.65
2019-01-10T05:20:41.489Z,98729.27
2019-01-10T05:23:09.856Z,98735.30
2019-01-10T05:25:40.047Z,98731.91
2019-01-10T05:28:08.342Z,98739.77
2019-01-10T05:30:36.822Z,98736.95
2019-01-10T05:33:06.532Z,98738.26
2019-01-10T05:35:34.971Z,98743.37
2019-01-10T05:38:05.924Z,98753.33
2019-01-10T05:40:34.406Z,98758.98
2019-01-10T05:43:03.040Z,98756.30
2019-01-10T05:45:31.732Z,98771.84
2019-01-10T05:48:00.056Z,98768.63
2019-01-10T05:50:28.855Z,98773.70
2019-01-10T05:52:57.593Z,98769.55
2019-01-10T05:55:25.684Z,98785.52
2019-01-10T05:57:54.076Z,98778.86
2019-01-10T06:00:27.180Z,98781.63
2019-01-10T06:02:57.271Z,98787.55
2019-01-10T06:05:28.713Z,98794.80
2019-01-10T06:07:56.834Z,98794.94
2019-01-10T06:10:30.393Z,98801.55
2019-01-10T06:12:59.163Z,98799.00
2019-01-10T06:15:27.671Z,98802.24
2019-01-10T06:17:56.140Z,98802.03
2019-01-10T06:20:27.994Z,98810.77
2019-01-10T06:22:56.184Z,98798.50
2019-01-10T06:25:24.625Z,98796.08
2019-01-10T06:27:54.361Z,98804.16
2019-01-10T06:30:24.925Z,98814.91
2019-01-10T06:32:54.960Z,98814.91
2019-01-10T06:35:23.408Z,98820.83
2019-01-10T06:37:53.220Z,98822.84
2019-01-10T06:40:22.350Z,98825.97
2019-01-10T06:42:50.720Z,98823.62
2019-01-10T06:45:19.142Z,98825.13
2019-01-10T06:47:47.690Z,98825.73
2019-01-10T06:50:16.683Z,98825.90
2019-01-10T06:52:45.122Z,98828.91
2019-01-10T06:55:13.244Z,98827.98
2019-01-10T06:57:41.275Z,98834.65
2019-01-10T07:00:20.922Z,98835.02
2019-01-10T07:02:49.691Z,98833.30
2019-01-10T07:05:20.093Z,98832.78
2019-01-10T07:07:56.403Z,98841.74
2019-01-10T07:10:29.076Z,98841.15
2019-01-10T07:12:57.366Z,98844.03
2019-01-10T07:15:26.815Z,98843.63
2019-01-10T07:17:54.924Z,98845.21
2019-01-10T07:20:24.027Z,98853.95
2019-01-10T07:22:53.476Z,98855.55
2019-01-10T07:25:21.466Z,98860.02
2019-01-10T07:27:50.775Z,98862.02
2019-01-10T07:30:25.447Z,98859.52
2019-01-10T07:32:53.509Z,98867.91
2019-01-10T07:35:21.558Z,98866.98
2019-01-10T07:37:52.724Z,98862.18
2019-01-10T07:40:21.041Z,98871.33
2019-01-10T07:42:49.038Z,98868.62
2019-01-10T07:45:22.913Z,98869.89
2019-01-10T07:47:51.459Z,98870.68
2019-01-10T07:50:33.246Z,98874.96
2019-01-10T07:53:01.599Z,98874.63
2019-01-10T07:55:29.617Z,98872.02
2019-01-10T07:57:58.301Z,98868.77
2019-01-10T08:00:26.264Z,98872.58
2019-01-10T08:02:55.389Z,98878.78
2019-01-10T08:05:23.406Z,98879.81
2019-01-10T08:07:52.057Z,98888.33
2019-01-10T08:10:21.833Z,98885.88
2019-01-10T08:12:49.879Z,98897.77
2019-01-10T08:15:20.650Z,98897.77
2019-01-10T08:17:50.525Z,98901.16
2019-01-10T08:20:20.343Z,98902.35
2019-01-10T08:22:48.465Z,98915.38
2019-01-10T08:25:16.526Z,98915.86
2019-01-10T08:27:44.743Z,98922.81
2019-01-10T08:30:16.804Z,98923.37
2019-01-10T08:32:44.840Z,98929.63
2019-01-10T08:35:14.835Z,98931.83
2019-01-10T08:37:43.933Z,98929.97
2019-01-10T08:40:11.952Z,98935.94
2019-01-10T08:42:40.596Z,98934.86
2019-01-10T08:45:10.019Z,98940.86
2019-01-10T08:47:38.246Z,98934.33
2019-01-10T08:50:11.182Z,98945.16
2019-01-10T08:52:39.594Z,98945.96
2019-01-10T08:55:07.971Z,98945.61
2019-01-10T08:57:37.411Z,98940.61
2019-01-10T09:00:09.829Z,98947.47
2019-01-10T09:02:39.023Z,98947.91
2019-01-10T09:05:08.835Z,98956.42
2019-01-10T09:07:36.913Z,98957.87
2019-01-10T09:10:09.862Z,98958.97
2019-01-10T09:12:37.859Z,98958.47
2019-01-10T09:15:07.321Z,98956.20
2019-01-10T09:17:35.484Z,98964.30
2019-01-10T09:20:04.662Z,98969.38
2019-01-10T09:22:33.013Z,98965.72
2019-01-10T09:25:01.258Z,98969.78
2019-01-10T09:27:29.386Z,98969.35
2019-01-10T09:29:58.333Z,98973.78
2019-01-10T09:32:26.620Z,98971.58
2019-01-10T09:34:55.162Z,98975.88
2019-01-10T09:37:23.240Z,98978.53
2019-01-10T09:39:52.486Z,98979.47
2019-01-10T09:42:21.232Z,98981.83
2019-01-10T09:44:49.292Z,98982.41
2019-01-10T09:47:17.926Z,98981.88
2019-01-10T09:49:48.498Z,98992.64
2019-01-10T09:52:16.474Z,98990.60
2019-01-10T09:54:45.056Z,98991.59
2019-01-10T09:57:14.254Z,98996.64
2019-01-10T09:59:42.678Z,98996.69
2019-01-10T10:02:11.093Z,99000.83
2019-01-10T10:04:40.250Z,99006.64
2019-01-10T10:07:08.375Z,98998.47
2019-01-10T10:09:36.719Z,98996.41
2019-01-10T10:12:04.693Z,99003.12
2019-01-10T10:14:35.100Z,98997.78
2019-01-10T10:17:03.033Z,98997.53
2019-01-10T10:19:32.381Z,99005.48
2019-01-10T10:22:00.650Z,99008.69
2019-01-10T10:24:30.081Z,99000.80
2019-01-10T10:26:58.157Z,99010.27
2019-01-10T10:29:26.395Z,99001.75
2019-01-10T10:31:56.611Z,99005.25
2019-01-10T10:34:24.694Z,99009.67
2019-01-10T10:36:53.162Z,99004.91
2019-01-10T10:39:21.340Z,99012.60
2019-01-10T10:41:50.464Z,99016.15
2019-01-10T10:44:18.667Z,99014.19
2019-01-10T10:46:46.683Z,99009.84
2019-01-10T10:49:15.875Z,99019.53
2019-01-10T10:51:43.915Z,99009.66
2019-01-10T10:54:12.354Z,99012.27
2019-01-10T10:56:40.311Z,99008.09
2019-01-10T10:59:08.322Z,99014.36
2019-01-10T11:01:38.026Z,99015.63
2019-01-10T11:04:05.948Z,99015.64
2019-01-10T11:06:34.580Z,99009.20
2019-01-10T11:09:09.245Z,99006.23
2019-01-10T11:11:34.890Z,99009.03
2019-01-10T11:14:02.925Z,99007.34
2019-01-10T11:16:31.065Z,99010.83
2019-01-10T11:18:59.104Z,99005.58
2019-01-10T11:21:27.396Z,99009.23
2019-01-10T11:23:56.816Z,98999.23
2019-01-10T11:26:25.182Z,99001.69
2019-01-10T11:28:53.211Z,99007.95
2019-01-10T11:31:21.312Z,99011.92
2019-01-10T11:33:49.399Z,99012.58
2019-01-10T11:36:17.360Z,99006.11
2019-01-10T11:38:45.385Z,99009.25
2019-01-10T11:41:13.885Z,99012.42
2019-01-10T11:43:43.102Z,99004.16
2019-01-10T11:46:19.258Z,99005.67
2019-01-10T11:48:41.261Z,99008.11
2019-01-10T11:51:09.453Z,99004.08
2019-01-10T11:53:37.578Z,99000.19
2019-01-10T11:56:05.679Z,98998.73
2019-01-10T11:58:33.954Z,99003.91
2019-01-10T12:01:01.984Z,99000.15
2019-01-10T12:03:30.951Z,98996.77
2019-01-10T12:05:58.920Z,99000.19
2019-01-10T12:08:26.967Z,99005.66
2019-01-10T12:10:55.050Z,98995.02
2019-01-10T12:13:23.078Z,98994.02
2019-01-10T12:15:51.116Z,98992.25
2019-01-10T12:18:19.971Z,98988.17
2019-01-10T12:20:49.207Z,98987.84
2019-01-10T12:23:17.241Z,98982.34
2019-01-10T12:25:45.687Z,98982.83
2019-01-10T12:28:13.760Z,98973.41
2019-01-10T12:30:42.956Z,98986.72
2019-01-10T12:33:11.091Z,98982.80
2019-01-10T12:35:39.201Z,98982.20
2019-01-10T12:38:07.205Z,98982.41
2019-01-10T12:40:35.177Z,98983.83
2019-01-10T12:43:03.157Z,98987.09
2019-01-10T12:45:32.302Z,98983.64
2019-01-10T12:48:01.688Z,98982.65
2019-01-10T12:50:33.826Z,98985.14
2019-01-10T12:53:07.940Z,98986.64
2019-01-10T12:55:37.059Z,98983.66
2019-01-10T12:58:08.123Z,98986.98
2019-01-10T13:00:37.366Z,98982.39
2019-01-10T13:03:05.789Z,98988.17
2019-01-10T13:05:33.887Z,98981.56
2019-01-10T13:08:03.763Z,98983.89
2019-01-10T13:10:32.808Z,98987.36
2019-01-10T13:13:00.759Z,98987.97
2019-01-10T13:15:29.163Z,98980.66
2019-01-10T13:17:57.460Z,98991.06
2019-01-10T13:20:26.530Z,98990.53
2019-01-10T13:22:55.683Z,98996.48
2019-01-10T13:25:23.829Z,98991.86
2019-01-10T13:27:54.072Z,98993.86
2019-01-10T13:30:24.840Z,99000.16
2019-01-10T13:32:55.183Z,99004.38
2019-01-10T13:35:23.446Z,99001.27
2019-01-10T13:37:51.737Z,99011.78
2019-01-10T13:40:19.934Z,99010.05
2019-01-10T13:42:48.113Z,99010.34
2019-01-10T13:45:16.893Z,99006.16
2019-01-10T13:47:47.120Z,99010.59
2019-01-10T13:50:24.985Z,99009.64
2019-01-10T13:52:53.599Z,99011.16
2019-01-10T13:55:21.886Z,99013.44
2019-01-10T13:57:50.340Z,99014.06
2019-01-10T14:00:21.645Z,99015.41
2019-01-10T14:02:49.662Z,99016.94
2019-01-10T14:05:17.819Z,99022.17
2019-01-10T14:07:45.870Z,99020.06
2019-01-10T14:10:15.315Z,99028.59
2019-01-10T14:12:43.346Z,99026.23
2019-01-10T14:15:18.055Z,99024.05
2019-01-10T14:17:45.950Z,99035.27
2019-01-10T14:20:14.592Z,99028.59
2019-01-10T14:22:43.313Z,99029.62
2019-01-10T14:25:11.390Z,99027.31
2019-01-10T14:27:39.491Z,99026.25
2019-01-10T14:30:22.764Z,99037.38
2019-01-10T14:32:52.125Z,99026.05
2019-01-10T14:35:20.517Z,99027.31
2019-01-10T14:37:48.669Z,99031.10
2019-01-10T14:40:17.569Z,99034.22
2019-01-10T14:42:45.539Z,99036.88
2019-01-10T14:45:14.872Z,99039.80
2019-01-10T14:47:44.258Z,99037.34
2019-01-10T14:50:14.343Z,99045.73
2019-01-10T14:52:42.364Z,99046.73
2019-01-10T14:55:12.564Z,99057.66
2019-01-10T14:57:40.717Z,99068.36
2019-01-10T15:00:15.185Z,99064.77
2019-01-10T15:02:44.710Z,99065.97
2019-01-10T15:05:14.932Z,99073.92
2019-01-10T15:07:45.525Z,99067.03
2019-01-10T15:10:13.740Z,99068.44
2019-01-10T15:12:42.250Z,99069.78
2019-01-10T15:15:14.348Z,99072.36
2019-01-10T15:17:42.559Z,99080.50
2019-01-10T15:20:14.950Z,99078.08
2019-01-10T15:22:44.315Z,99082.73
2019-01-10T15:25:12.452Z,99085.21
2019-01-10T15:27:40.755Z,99079.30
2019-01-10T15:30:14.405Z,99085.51
2019-01-10T15:32:42.732Z,99098.17
2019-01-10T15:35:12.457Z,99096.06
2019-01-10T15:37:42.271Z,99093.94
2019-01-10T15:40:15.284Z,99095.14
2019-01-10T15:42:43.296Z,99098.05
2019-01-10T15:45:12.842Z,99098.05
2019-01-10T15:47:41.117Z,99099.08
2019-01-10T15:50:11.966Z,99106.70
2019-01-10T15:52:40.312Z,99105.66
2019-01-10T15:55:09.463Z,99096.64
2019-01-10T15:57:37.570Z,99102.19
2019-01-10T16:00:09.764Z,99105.64
2019-01-10T16:02:37.820Z,99107.33
2019-01-10T16:05:06.200Z,99103.12
2019-01-10T16:07:35.486Z,99109.87
2019-01-10T16:10:07.573Z,99111.78
2019-01-10T16:12:35.757Z,99108.45
2019-01-10T16:15:06.068Z,99112.98
2019-01-10T16:17:34.274Z,99115.70
2019-01-10T16:20:04.583Z,99116.48
2019-01-10T16:22:34.603Z,99121.85
2019-01-10T16:25:03.677Z,99121.91
2019-01-10T16:27:33.331Z,99124.39
2019-01-10T16:30:01.364Z,99125.78
2019-01-10T16:32:29.356Z,99133.31
2019-01-10T16:35:00.747Z,99133.33
2019-01-10T16:37:28.749Z,99135.92
2019-01-10T16:39:57.907Z,99138.09
2019-01-10T16:42:25.989Z,99139.85
2019-01-10T16:44:55.160Z,99136.34
2019-01-10T16:47:23.458Z,99141.97
2019-01-10T16:49:51.580Z,99138.52
2019-01-10T16:52:19.852Z,99141.48
2019-01-10T16:54:50.856Z,99136.46
2019-01-10T16:57:21.026Z,99136.41
2019-01-10T16:59:49.271Z,99139.64
2019-01-10T17:02:17.634Z,99138.05
2019-01-10T17:04:45.712Z,99139.00
2019-01-10T17:07:15.541Z,99144.44
2019-01-10T17:09:43.731Z,99146.73
2019-01-10T17:12:14.819Z,99147.23
2019-01-10T17:14:42.890Z,99144.94
2019-01-10T17:17:12.305Z,99145.11
2019-01-10T17:19:40.460Z,99144.67
2019-01-10T17:22:09.877Z,99153.27
2019-01-10T17:24:39.990Z,99145.18
2019-01-10T17:27:08.316Z,99153.48
2019-01-10T17:29:36.576Z,99152.47
2019-01-10T17:32:04.856Z,99157.73
2019-01-10T17:34:32.979Z,99157.42
2019-01-10T17:37:01.687Z,99156.09
2019-01-10T17:39:30.865Z,99158.94
2019-01-10T17:41:59.009Z,99159.98
2019-01-10T17:44:27.258Z,99157.73
2019-01-10T17:46:55.566Z,99159.94
2019-01-10T17:49:23.566Z,99162.58
2019-01-10T17:51:54.973Z,99161.86
2019-01-10T17:54:24.908Z,99171.28
2019-01-10T17:56:53.413Z,99173.13
2019-01-10T17:59:21.578Z,99173.82
2019-01-10T18:01:50.473Z,99178.13
2019-01-10T18:04:19.455Z,99177.70
2019-01-10T18:06:47.621Z,99185.29
2019-01-10T18:09:15.992Z,99185.25
2019-01-10T18:11:44.496Z,99188.04
2019-01-10T18:14:13.005Z,99186.41
2019-01-10T18:16:42.890Z,99192.12
2019-01-10T18:19:12.118Z,99192.52
2019-01-10T18:21:40.381Z,99197.23
2019-01-10T18:24:08.815Z,99198.32
2019-01-10T18:26:37.641Z,99196.09
2019-01-10T18:29:05.764Z,99194.52
2019-01-10T18:31:35.945Z,99196.23
2019-01-10T18:34:06.161Z,99200.75
2019-01-10T18:36:36.068Z,99207.23
2019-01-10T18:39:06.709Z,99210.00
2019-01-10T18:41:36.098Z,99208.73
2019-01-10T18:44:04.134Z,99213.32
2019-01-10T18:46:33.221Z,99213.01
2019-01-10T18:49:01.400Z,99215.05
2019-01-10T18:51:29.927Z,99220.47
2019-01-10T18:53:58.077Z,99218.72
2019-01-10T18:56:26.049Z,99215.05
2019-01-10T18:58:54.386Z,99211.10
2019-01-10T19:01:23.167Z,99214.77
2019-01-10T19:03:51.126Z,99216.30
2019-01-10T19:06:21.524Z,99216.16
2019-01-10T19:08:49.555Z,99214.54
2019-01-10T19:11:18.312Z,99219.06
2019-01-10T19:13:47.605Z,99220.27
2019-01-10T19:16:15.771Z,99220.12
2019-01-10T19:18:43.976Z,99217.27
2019-01-10T19:21:11.977Z,99216.05
2019-01-10T19:23:40.336Z,99212.29
2019-01-10T19:26:10.579Z,99216.65
2019-01-10T19:28:38.905Z,99220.41
2019-01-10T19:31:07.063Z,99219.64
2019-01-10T19:33:35.221Z,99222.19
2019-01-10T19:36:04.841Z,99221.17
2019-01-10T19:38:33.335Z,99233.14
2019-01-10T19:41:01.550Z,99229.34
2019-01-10T19:43:30.765Z,99225.53
2019-01-10T19:45:59.005Z,99226.01
2019-01-10T19:48:27.210Z,99218.48
2019-01-10T19:50:55.835Z,99214.59
2019-01-10T19:53:23.940Z,99219.97
2019-01-10T19:55:52.044Z,99226.14
2019-01-10T19:58:20.309Z,99231.45
2019-01-10T20:00:53.188Z,99229.95
2019-01-10T20:03:21.227Z,99223.91
2019-01-10T20:05:49.986Z,99237.60
2019-01-10T20:08:18.203Z,99240.20
2019-01-10T20:10:47.494Z,99241.16
2019-01-10T20:13:15.666Z,99244.06
2019-01-10T20:15:43.769Z,99243.75
2019-01-10T20:18:16.151Z,99245.38
2019-01-10T20:20:42.552Z,99247.02
2019-01-10T20:23:18.634Z,99250.70
2019-01-10T20:25:46.992Z,99251.23
2019-01-10T20:28:15.308Z,99248.41
2019-01-10T20:30:43.324Z,99250.57
2019-01-10T20:33:11.370Z,99255.69
2019-01-10T20:35:39.603Z,99254.42
2019-01-10T20:38:07.569Z,99255.22
2019-01-10T20:40:35.523Z,99254.84
2019-01-10T20:43:03.432Z,99252.78
2019-01-10T20:45:32.858Z,99263.49
2019-01-10T20:48:02.143Z,99259.28
2019-01-10T20:50:30.111Z,99250.51
2019-01-10T20:52:58.326Z,99261.43
2019-01-10T20:55:26.372Z,99266.87
2019-01-10T20:57:54.379Z,99267.39
2019-01-10T21:00:23.573Z,99271.38
2019-01-10T21:02:51.945Z,99266.51
2019-01-10T21:05:20.324Z,99260.88
2019-01-10T21:07:49.795Z,99262.98
2019-01-10T21:10:18.845Z,99271.41
2019-01-10T21:12:48.215Z,99272.21
2019-01-10T21:15:20.091Z,99272.47
2019-01-10T21:17:49.271Z,99272.52
2019-01-10T21:20:18.478Z,99273.42
2019-01-10T21:22:48.717Z,99272.09
2019-01-10T21:25:17.388Z,99264.20
2019-01-10T21:27:45.640Z,99264.08
2019-01-10T21:30:16.593Z,99266.84
2019-01-10T21:32:45.835Z,99267.73
2019-01-10T21:35:13.833Z,99264.45
2019-01-10T21:37:41.924Z,99266.89
2019-01-10T21:40:13.182Z,99273.75
2019-01-10T21:42:41.206Z,99273.67
2019-01-10T21:45:13.127Z,99279.20
2019-01-10T21:47:41.194Z,99276.25
2019-01-10T21:50:12.303Z,99277.52
2019-01-10T21:52:40.508Z,99280.42
2019-01-10T21:55:09.667Z,99281.31
2019-01-10T21:57:37.656Z,99286.38
2019-01-10T22:00:11.029Z,99283.89
2019-01-10T22:02:40.029Z,99283.47
2019-01-10T22:05:07.984Z,99282.25
2019-01-10T22:07:36.235Z,99284.22
2019-01-10T22:10:05.057Z,99286.90
2019-01-10T22:12:33.261Z,99281.41
2019-01-10T22:15:01.856Z,99281.97
2019-01-10T22:17:30.016Z,99275.68
2019-01-10T22:19:58.597Z,99282.76
2019-01-10T22:22:26.873Z,99275.50
2019-01-10T22:24:54.832Z,99271.23
2019-01-10T22:27:23.347Z,99273.34
2019-01-10T22:29:51.371Z,99273.81
2019-01-10T22:32:19.377Z,99273.53
2019-01-10T22:34:47.411Z,99265.94
2019-01-10T22:37:16.373Z,99263.59
2019-01-10T22:39:44.832Z,99261.02
2019-01-10T22:42:12.802Z,99261.02
2019-01-10T22:44:42.305Z,99259.00
2019-01-10T22:47:10.691Z,99257.86
2019-01-10T22:49:38.635Z,99255.25
2019-01-10T22:52:06.636Z,99261.23
2019-01-10T22:54:35.567Z,99257.91
2019-01-10T22:57:03.522Z,99266.80
2019-01-10T22:59:31.769Z,99269.84
2019-01-10T23:01:59.965Z,99266.09
2019-01-10T23:04:34.498Z,99266.92
2019-01-10T23:07:02.456Z,99263.51
2019-01-10T23:09:30.804Z,99262.24
2019-01-10T23:11:58.877Z,99264.70
2019-01-10T23:14:27.102Z,99262.55
2019-01-10T23:16:55.020Z,99264.56
2019-01-10T23:19:22.983Z,99268.78
2019-01-10T23:21:50.984Z,99263.55
2019-01-10T23:24:19.757Z,99263.59
2019-01-10T23:26:54.818Z,99254.87
2019-01-10T23:29:31.369Z,99261.53
2019-01-10T23:32:05.048Z,99260.92
2019-01-10T23:34:33.271Z,99264.72
2019-01-10T23:37:02.761Z,99262.14
2019-01-10T23:39:31.417Z,99260.88
2019-01-10T23:41:59.385Z,99270.11
2019-01-10T23:44:27.346Z,99262.06
2019-01-10T23:46:55.356Z,99262.89
2019-01-10T23:49:23.315Z,99254.88
2019-01-10T23:51:52.260Z,99252.45
2019-01-10T23:54:20.757Z,99256.25
2019-01-10T23:56:48.845Z,99265.05
2019-01-10T23:59:16.758Z,99265.66
